Time;durP1;ratioP1;P1;durP2;ratioP2;P2;SDS_P1;SDS_P2;PMS_P1;PMS_P2;Temp;Humidity;BMP_temperature;BMP_pressure;BME280_temperature;BME280_humidity;BME280_pressure;Samples;Min_cycle;Max_cycle;Signal;HPM_P1;HPM_P2
2021/08/16 00:00:56;;;;;;;12.80;2.58;;;16.70;99.90;;;;;;4149536;28;20180;-82
2021/08/16 00:02:57;;;;;;;19.48;3.42;;;16.60;99.90;;;;;;4182248;28;20176;-82
2021/08/16 00:04:58;;;;;;;17.88;2.90;;;16.60;99.90;;;;;;4165887;28;20601;-82
2021/08/16 00:06:58;;;;;;;15.52;3.17;;;16.60;99.90;;;;;;4148230;28;20197;-82
2021/08/16 00:08:59;;;;;;;20.20;2.80;;;16.70;99.90;;;;;;4165298;28;20183;-82
2021/08/16 00:11:03;;;;;;;12.57;2.45;;;16.70;99.90;;;;;;4165684;28;20180;-82
2021/08/16 00:13:03;;;;;;;21.77;2.97;;;16.80;99.90;;;;;;4149467;28;20215;-81
2021/08/16 00:15:05;;;;;;;16.38;2.80;;;16.80;99.90;;;;;;4165997;28;20168;-82
2021/08/16 00:17:06;;;;;;;23.30;3.05;;;16.80;99.90;;;;;;4165776;28;20192;-82
2021/08/16 00:19:07;;;;;;;21.10;2.92;;;16.80;99.90;;;;;;4165576;28;20546;-82
2021/08/16 00:21:08;;;;;;;18.40;2.70;;;17.00;99.90;;;;;;4165701;28;20179;-82
2021/08/16 00:23:08;;;;;;;18.48;2.10;;;17.00;99.90;;;;;;4166730;28;20175;-82
2021/08/16 00:25:09;;;;;;;15.43;2.20;;;16.90;99.90;;;;;;4182134;28;20171;-82
2021/08/16 00:27:10;;;;;;;16.33;2.58;;;17.00;99.90;;;;;;4165686;28;20172;-82
2021/08/16 00:29:10;;;;;;;15.55;2.65;;;16.90;99.90;;;;;;4166730;28;20171;-81
2021/08/16 00:31:11;;;;;;;12.98;2.33;;;17.00;99.90;;;;;;4165522;28;20263;-84
2021/08/16 00:33:12;;;;;;;15.48;2.50;;;16.90;99.90;;;;;;4165378;28;20172;-82
2021/08/16 00:35:13;;;;;;;17.23;2.80;;;16.90;99.90;;;;;;4165441;28;20176;-88
2021/08/16 00:37:13;;;;;;;18.13;2.50;;;16.90;99.90;;;;;;4165516;28;20177;-82
2021/08/16 00:39:14;;;;;;;15.40;2.85;;;16.90;99.90;;;;;;4166415;28;20175;-82
2021/08/16 00:41:17;;;;;;;18.58;2.40;;;16.90;99.90;;;;;;4148972;28;20161;-84
2021/08/16 00:43:18;;;;;;;17.88;3.20;;;16.80;99.90;;;;;;4165281;28;20188;-82
2021/08/16 00:45:18;;;;;;;15.30;2.80;;;16.80;99.90;;;;;;4165371;28;20153;-82
2021/08/16 00:47:21;;;;;;;9.82;2.35;;;16.80;99.90;;;;;;4165175;28;20176;-82
2021/08/16 00:49:23;;;;;;;17.42;2.45;;;16.80;99.90;;;;;;4148727;28;20161;-83
2021/08/16 00:51:27;;;;;;;16.60;2.55;;;16.80;99.90;;;;;;4165036;28;20661;-82
2021/08/16 00:53:30;;;;;;;12.95;2.45;;;16.90;99.90;;;;;;4181775;28;20668;-90
2021/08/16 00:55:31;;;;;;;24.23;2.92;;;16.90;99.90;;;;;;4165003;28;20196;-83
2021/08/16 00:57:32;;;;;;;12.23;2.20;;;16.80;99.90;;;;;;4166221;28;20552;-82
2021/08/16 00:59:33;;;;;;;15.88;3.17;;;16.80;99.90;;;;;;4165022;28;20275;-89
2021/08/16 01:01:34;;;;;;;21.70;2.75;;;16.80;99.90;;;;;;4181733;28;20202;-84
2021/08/16 01:03:35;;;;;;;17.80;2.63;;;16.80;99.90;;;;;;4181363;28;20191;-82
2021/08/16 01:05:36;;;;;;;14.35;3.05;;;16.80;99.90;;;;;;4148344;28;20347;-83
2021/08/16 01:07:38;;;;;;;16.33;2.55;;;16.80;99.90;;;;;;4164548;28;20176;-90
2021/08/16 01:09:38;;;;;;;15.77;2.90;;;16.90;99.90;;;;;;4166140;28;20175;-82
2021/08/16 01:11:39;;;;;;;16.83;2.85;;;16.90;99.90;;;;;;4165097;28;20180;-90
2021/08/16 01:13:40;;;;;;;14.57;2.60;;;16.80;99.90;;;;;;4181633;28;20270;-82
2021/08/16 01:15:53;;;;;;;15.50;2.50;;;16.80;99.90;;;;;;4148519;28;20193;-82
2021/08/16 01:17:54;;;;;;;13.57;2.90;;;16.80;99.90;;;;;;4180659;28;20266;-82
2021/08/16 01:19:55;;;;;;;18.30;2.53;;;16.90;99.90;;;;;;4148464;28;20173;-82
2021/08/16 01:21:55;;;;;;;16.25;2.83;;;16.90;99.90;;;;;;4148375;28;20239;-82
2021/08/16 01:23:56;;;;;;;11.65;2.28;;;17.10;99.90;;;;;;4181287;28;20175;-82
2021/08/16 01:25:57;;;;;;;18.77;2.92;;;17.20;99.90;;;;;;4164574;28;20192;-82
2021/08/16 01:27:58;;;;;;;14.10;2.38;;;17.20;99.90;;;;;;4164891;28;20172;-82
2021/08/16 01:30:00;;;;;;;19.40;2.28;;;17.30;99.90;;;;;;4148402;28;20593;-82
2021/08/16 01:32:02;;;;;;;16.95;2.15;;;17.40;99.90;;;;;;4165661;28;20590;-82
2021/08/16 01:34:03;;;;;;;17.00;2.55;;;17.40;99.90;;;;;;4180973;28;20514;-82
2021/08/16 01:36:04;;;;;;;13.95;2.22;;;17.30;99.90;;;;;;4148196;28;20250;-88
2021/08/16 01:38:05;;;;;;;16.45;2.40;;;17.30;99.90;;;;;;4147887;28;20236;-85
2021/08/16 01:40:15;;;;;;;17.85;2.58;;;17.30;99.90;;;;;;4147684;28;20750;-83
2021/08/16 01:42:16;;;;;;;13.13;2.00;;;17.20;99.90;;;;;;4147935;28;20164;-82
2021/08/16 01:44:19;;;;;;;16.10;2.60;;;17.20;99.90;;;;;;4164299;28;20263;-82
2021/08/16 01:46:20;;;;;;;15.63;2.50;;;17.20;99.90;;;;;;4180713;28;20188;-82
2021/08/16 01:48:20;;;;;;;15.18;2.20;;;17.30;99.90;;;;;;4147784;28;20180;-82
2021/08/16 01:50:21;;;;;;;11.07;2.20;;;17.30;99.90;;;;;;4164104;28;20254;-82
2021/08/16 01:52:22;;;;;;;12.13;2.40;;;17.30;99.90;;;;;;4164076;28;20176;-82
2021/08/16 01:54:23;;;;;;;14.80;2.50;;;17.20;99.90;;;;;;4164152;28;20181;-82
2021/08/16 01:56:24;;;;;;;14.88;2.65;;;17.20;99.90;;;;;;4164030;28;20246;-82
2021/08/16 01:58:24;;;;;;;13.20;2.00;;;17.20;99.90;;;;;;4164038;28;20293;-82
2021/08/16 02:00:25;;;;;;;14.98;2.60;;;17.10;99.90;;;;;;4164261;28;20171;-82
2021/08/16 02:02:25;;;;;;;10.57;1.98;;;17.10;99.90;;;;;;4164171;28;20176;-82
2021/08/16 02:04:26;;;;;;;15.43;2.20;;;17.20;99.90;;;;;;4164491;28;20172;-82
2021/08/16 02:06:27;;;;;;;15.25;2.75;;;17.10;99.90;;;;;;4164143;28;20192;-82
2021/08/16 02:08:28;;;;;;;12.85;2.35;;;17.10;99.90;;;;;;4164209;28;20168;-82
2021/08/16 02:10:29;;;;;;;13.05;2.67;;;17.20;99.90;;;;;;4164070;28;20169;-82
2021/08/16 02:12:29;;;;;;;10.73;2.08;;;17.10;99.90;;;;;;4163832;28;20176;-82
2021/08/16 02:14:30;;;;;;;18.08;2.65;;;17.10;99.90;;;;;;4180664;28;20598;-82
2021/08/16 02:16:31;;;;;;;13.70;2.55;;;17.00;99.90;;;;;;4147771;28;20220;-82
2021/08/16 02:18:31;;;;;;;17.15;2.53;;;17.00;99.90;;;;;;4164004;28;20600;-82
2021/08/16 02:20:33;;;;;;;18.58;2.00;;;16.90;99.90;;;;;;4180587;28;20171;-81
2021/08/16 02:22:34;;;;;;;15.65;2.63;;;16.80;99.90;;;;;;4180151;28;20224;-82
2021/08/16 02:24:34;;;;;;;12.55;2.58;;;16.80;99.90;;;;;;4165305;28;20168;-82
2021/08/16 02:26:35;;;;;;;16.00;2.15;;;16.80;99.90;;;;;;4147617;28;20196;-82
2021/08/16 02:28:36;;;;;;;19.80;3.00;;;16.80;99.90;;;;;;4164065;28;20180;-83
2021/08/16 02:30:36;;;;;;;11.48;2.13;;;16.80;99.90;;;;;;4166265;28;20262;-83
2021/08/16 02:32:37;;;;;;;13.30;2.80;;;16.70;99.90;;;;;;4167022;28;20576;-82
2021/08/16 02:34:37;;;;;;;16.50;2.47;;;16.70;99.90;;;;;;4167287;28;20180;-82
2021/08/16 02:36:38;;;;;;;17.08;2.90;;;16.70;99.90;;;;;;4183775;28;20226;-84
2021/08/16 02:38:39;;;;;;;21.17;2.38;;;16.60;99.90;;;;;;4167039;28;20216;-82
2021/08/16 02:40:40;;;;;;;10.65;1.90;;;16.70;99.90;;;;;;4183537;28;20178;-82
2021/08/16 02:42:41;;;;;;;13.68;2.35;;;16.70;99.90;;;;;;4166980;28;20172;-82
2021/08/16 02:44:41;;;;;;;11.68;2.47;;;16.70;99.90;;;;;;4167161;28;20230;-81
2021/08/16 02:46:42;;;;;;;17.27;2.78;;;16.70;99.90;;;;;;4166951;28;20196;-82
2021/08/16 02:48:43;;;;;;;24.73;2.53;;;16.80;99.90;;;;;;4183571;28;20184;-82
2021/08/16 02:50:43;;;;;;;11.57;2.13;;;16.80;99.90;;;;;;4167247;28;20172;-82
2021/08/16 02:52:44;;;;;;;15.50;2.38;;;16.90;99.90;;;;;;4167982;28;20195;-82
2021/08/16 02:54:45;;;;;;;16.83;2.60;;;16.80;99.90;;;;;;4183828;28;20179;-82
2021/08/16 02:56:46;;;;;;;15.98;2.35;;;16.80;99.90;;;;;;4166689;28;20204;-82
2021/08/16 02:58:46;;;;;;;13.65;2.60;;;16.90;99.90;;;;;;4166881;28;20274;-82
2021/08/16 03:00:47;;;;;;;21.23;2.35;;;16.90;99.90;;;;;;4150387;28;20315;-82
2021/08/16 03:02:48;;;;;;;12.00;2.20;;;17.00;99.90;;;;;;4150544;28;20705;-82
2021/08/16 03:04:49;;;;;;;12.57;2.05;;;17.00;99.90;;;;;;4166700;28;20264;-82
2021/08/16 03:06:50;;;;;;;14.88;2.83;;;17.00;99.90;;;;;;4150527;28;20199;-82
2021/08/16 03:08:50;;;;;;;18.20;2.40;;;17.00;99.90;;;;;;4150372;28;20276;-82
2021/08/16 03:10:51;;;;;;;13.73;1.77;;;17.00;99.90;;;;;;4150490;28;20641;-82
2021/08/16 03:12:52;;;;;;;14.48;2.33;;;17.00;99.90;;;;;;4167824;28;20173;-82
2021/08/16 03:14:52;;;;;;;16.98;2.92;;;16.90;99.90;;;;;;4183174;28;20166;-82
2021/08/16 03:16:53;;;;;;;17.55;2.75;;;17.00;99.90;;;;;;4183007;28;20195;-82
2021/08/16 03:18:53;;;;;;;17.55;2.88;;;17.00;99.90;;;;;;4166096;28;20262;-82
2021/08/16 03:20:54;;;;;;;10.55;1.85;;;17.00;99.90;;;;;;4182936;28;20167;-82
2021/08/16 03:22:55;;;;;;;15.43;2.88;;;16.90;99.90;;;;;;4167760;28;20173;-82
2021/08/16 03:24:55;;;;;;;12.93;2.80;;;16.90;99.90;;;;;;4183201;28;20172;-82
2021/08/16 03:26:56;;;;;;;18.23;2.70;;;16.90;99.90;;;;;;4183076;28;20192;-82
2021/08/16 03:28:57;;;;;;;18.40;2.75;;;16.90;99.90;;;;;;4166367;28;20173;-82
2021/08/16 03:30:58;;;;;;;11.63;2.40;;;16.90;99.90;;;;;;4166287;28;20175;-82
2021/08/16 03:32:58;;;;;;;18.17;2.47;;;16.90;99.90;;;;;;4166436;28;20525;-83
2021/08/16 03:34:59;;;;;;;16.00;2.38;;;16.90;99.90;;;;;;4167702;28;20516;-82
2021/08/16 03:37:00;;;;;;;13.68;2.65;;;16.70;99.90;;;;;;4182984;28;20528;-82
2021/08/16 03:39:01;;;;;;;18.15;2.17;;;16.60;99.90;;;;;;4165818;28;20246;-82
2021/08/16 03:41:02;;;;;;;11.07;2.38;;;16.50;99.90;;;;;;4167299;28;20172;-82
2021/08/16 03:43:03;;;;;;;18.85;2.70;;;16.40;99.90;;;;;;4167439;28;20644;-82
2021/08/16 03:45:08;;;;;;;9.88;2.55;;;16.40;99.90;;;;;;4167382;28;20211;-84
2021/08/16 03:47:09;;;;;;;15.38;2.45;;;16.50;99.90;;;;;;4166196;28;20551;-83
2021/08/16 03:49:11;;;;;;;16.08;2.50;;;16.50;99.90;;;;;;4149863;28;20173;-87
2021/08/16 03:51:12;;;;;;;17.02;2.75;;;16.50;99.90;;;;;;4182411;28;20640;-82
2021/08/16 03:53:12;;;;;;;17.15;2.75;;;16.50;99.90;;;;;;4166084;28;20182;-91
2021/08/16 03:55:13;;;;;;;12.10;1.98;;;16.50;99.90;;;;;;4166671;28;20240;-91
2021/08/16 03:57:14;;;;;;;15.25;2.30;;;16.50;99.90;;;;;;4149626;28;20279;-86
2021/08/16 03:59:14;;;;;;;13.98;2.35;;;16.50;99.90;;;;;;4165501;28;20294;-83
2021/08/16 04:01:15;;;;;;;19.35;2.70;;;16.50;99.90;;;;;;4165899;28;20733;-83
2021/08/16 04:03:16;;;;;;;18.05;2.88;;;16.50;99.90;;;;;;4149517;28;20264;-83
2021/08/16 04:05:16;;;;;;;17.85;2.60;;;16.50;99.90;;;;;;4165785;28;20165;-83
2021/08/16 04:07:17;;;;;;;22.85;2.83;;;16.50;99.90;;;;;;4149338;28;20173;-83
2021/08/16 04:09:18;;;;;;;15.30;2.40;;;16.40;99.90;;;;;;4166963;28;20176;-83
2021/08/16 04:11:19;;;;;;;17.30;2.65;;;16.40;99.90;;;;;;4182466;28;20176;-83
2021/08/16 04:13:19;;;;;;;18.92;2.97;;;16.50;99.90;;;;;;4165878;28;20533;-92
2021/08/16 04:15:22;;;;;;;17.88;2.75;;;16.40;99.90;;;;;;4182328;28;20189;-91
2021/08/16 04:17:22;;;;;;;12.90;2.30;;;16.50;99.90;;;;;;4182377;28;20221;-83
2021/08/16 04:19:23;;;;;;;23.15;3.47;;;16.50;99.90;;;;;;4149380;28;20680;-82
2021/08/16 04:21:24;;;;;;;20.25;2.63;;;16.50;99.90;;;;;;4167132;28;20172;-83
2021/08/16 04:23:24;;;;;;;19.13;2.63;;;16.50;99.90;;;;;;4165353;28;20187;-83
2021/08/16 04:25:25;;;;;;;20.88;3.25;;;16.40;99.90;;;;;;4165444;28;20180;-83
2021/08/16 04:27:26;;;;;;;16.33;2.58;;;16.50;99.90;;;;;;4182163;28;20774;-83
2021/08/16 04:29:27;;;;;;;18.00;2.42;;;16.50;99.90;;;;;;4165474;28;20326;-83
2021/08/16 04:31:28;;;;;;;13.52;2.92;;;16.50;99.90;;;;;;4165648;28;20186;-83
2021/08/16 04:33:28;;;;;;;17.02;2.90;;;16.50;99.90;;;;;;4165574;28;20636;-83
2021/08/16 04:35:29;;;;;;;11.13;2.90;;;16.60;99.90;;;;;;4165401;28;20191;-83
2021/08/16 04:37:37;;;;;;;22.48;3.10;;;16.70;99.90;;;;;;4182091;28;20168;-83
2021/08/16 04:39:38;;;;;;;17.25;2.95;;;16.70;99.90;;;;;;4181882;28;20171;-91
2021/08/16 04:41:39;;;;;;;14.02;2.75;;;16.80;99.90;;;;;;4165651;28;20180;-87
2021/08/16 04:43:39;;;;;;;13.70;2.53;;;16.90;99.90;;;;;;4165650;28;20234;-90
2021/08/16 04:45:40;;;;;;;16.55;2.58;;;16.90;99.90;;;;;;4181933;28;20249;-91
2021/08/16 04:47:43;;;;;;;18.40;2.90;;;16.90;99.90;;;;;;4165463;28;20792;-82
2021/08/16 04:49:43;;;;;;;15.40;3.88;;;16.90;99.90;;;;;;4181642;28;20642;-82
2021/08/16 04:51:44;;;;;;;18.95;2.72;;;16.90;99.90;;;;;;4148829;28;20173;-83
2021/08/16 04:53:45;;;;;;;17.15;2.83;;;17.00;99.90;;;;;;4148245;28;20276;-81
2021/08/16 04:55:46;;;;;;;16.30;2.70;;;17.00;99.90;;;;;;4165071;28;20580;-91
2021/08/16 04:57:46;;;;;;;18.02;3.10;;;17.00;99.90;;;;;;4164978;28;20210;-83
2021/08/16 04:59:47;;;;;;;17.10;2.70;;;17.00;99.90;;;;;;4148835;28;20173;-83
2021/08/16 05:01:49;;;;;;;13.93;2.67;;;17.10;99.90;;;;;;4166374;28;20259;-92
2021/08/16 05:03:50;;;;;;;14.88;2.80;;;17.00;99.90;;;;;;4181673;28;20160;-92
2021/08/16 05:05:55;;;;;;;13.60;3.30;;;17.00;99.90;;;;;;4181350;28;20607;-82
2021/08/16 05:07:57;;;;;;;18.33;3.08;;;17.10;99.90;;;;;;4166005;28;20211;-83
2021/08/16 05:09:58;;;;;;;21.67;2.95;;;17.20;99.90;;;;;;4164983;28;20172;-82
2021/08/16 05:11:58;;;;;;;12.68;2.85;;;17.20;99.90;;;;;;4165018;28;20510;-83
2021/08/16 05:13:59;;;;;;;17.42;2.55;;;17.20;99.90;;;;;;4148487;28;20634;-83
2021/08/16 05:16:01;;;;;;;11.48;2.70;;;17.30;99.90;;;;;;4164879;28;20636;-82
2021/08/16 05:18:02;;;;;;;17.45;2.70;;;17.40;99.90;;;;;;4164854;28;20293;-83
2021/08/16 05:20:05;;;;;;;16.10;3.20;;;17.40;99.90;;;;;;4148323;28;20177;-83
2021/08/16 05:22:08;;;;;;;12.48;2.50;;;17.40;99.90;;;;;;4164944;28;20560;-83
2021/08/16 05:24:08;;;;;;;14.50;2.65;;;17.40;99.90;;;;;;4164805;28;20626;-83
2021/08/16 05:26:09;;;;;;;16.17;2.40;;;17.40;99.90;;;;;;4166073;28;20192;-83
2021/08/16 05:28:10;;;;;;;22.25;2.45;;;17.40;99.90;;;;;;4181132;28;20727;-83
2021/08/16 05:30:11;;;;;;;12.10;2.40;;;17.50;99.90;;;;;;4148072;28;20633;-82
2021/08/16 05:32:12;;;;;;;17.58;3.20;;;17.50;99.90;;;;;;4164149;28;20198;-83
2021/08/16 05:34:13;;;;;;;13.15;2.53;;;17.30;99.90;;;;;;4165831;28;20169;-83
2021/08/16 05:36:14;;;;;;;13.68;2.65;;;17.30;99.90;;;;;;4181026;28;20249;-83
2021/08/16 05:38:14;;;;;;;17.70;2.80;;;17.40;99.90;;;;;;4164149;28;20302;-83
2021/08/16 05:40:15;;;;;;;15.45;2.90;;;17.40;99.90;;;;;;4164182;28;20259;-83
2021/08/16 05:42:16;;;;;;;14.55;2.80;;;17.50;99.90;;;;;;4164355;28;20262;-83
2021/08/16 05:44:17;;;;;;;17.23;2.65;;;17.50;99.90;;;;;;4164498;28;20172;-83
2021/08/16 05:46:18;;;;;;;14.10;2.47;;;17.60;99.90;;;;;;4180932;28;20246;-83
2021/08/16 05:48:18;;;;;;;16.50;2.65;;;17.70;99.90;;;;;;4148026;28;20161;-83
2021/08/16 05:50:19;;;;;;;12.93;2.70;;;17.80;99.90;;;;;;4148038;28;20262;-83
2021/08/16 05:52:20;;;;;;;10.63;2.53;;;17.80;99.90;;;;;;4147786;28;20759;-91
2021/08/16 05:54:20;;;;;;;17.23;2.85;;;17.80;99.90;;;;;;4164032;28;20187;-83
2021/08/16 05:56:21;;;;;;;18.10;2.92;;;17.80;99.90;;;;;;4147662;28;20308;-85
2021/08/16 05:58:22;;;;;;;15.65;2.80;;;17.70;99.90;;;;;;4164046;28;20235;-82
2021/08/16 06:00:22;;;;;;;17.05;2.80;;;17.70;99.90;;;;;;4164166;28;20176;-83
2021/08/16 06:02:23;;;;;;;10.23;2.95;;;17.90;99.90;;;;;;4164136;28;20562;-83
2021/08/16 06:04:24;;;;;;;17.40;3.72;;;18.10;99.90;;;;;;4163390;28;20168;-83
2021/08/16 06:06:25;;;;;;;15.45;2.35;;;18.10;99.90;;;;;;4164008;28;20346;-83
2021/08/16 06:08:25;;;;;;;33.65;4.28;;;18.20;99.90;;;;;;4147837;28;20173;-83
2021/08/16 06:10:26;;;;;;;17.63;3.28;;;18.10;99.90;;;;;;4164937;28;20180;-82
2021/08/16 06:12:27;;;;;;;17.15;3.30;;;18.10;99.90;;;;;;4180609;28;20561;-83
2021/08/16 06:14:27;;;;;;;19.58;3.03;;;18.20;99.90;;;;;;4180717;28;20180;-83
2021/08/16 06:16:28;;;;;;;16.70;3.60;;;18.30;99.90;;;;;;4147621;28;20219;-83
2021/08/16 06:18:29;;;;;;;17.75;3.55;;;18.30;99.90;;;;;;4163701;28;20291;-82
2021/08/16 06:20:29;;;;;;;15.13;3.10;;;18.30;99.90;;;;;;4163963;28;20176;-83
2021/08/16 06:22:30;;;;;;;9.57;2.58;;;18.10;99.90;;;;;;4147654;28;20169;-83
2021/08/16 06:24:34;;;;;;;15.45;2.90;;;18.10;99.90;;;;;;4164081;28;20652;-89
2021/08/16 06:26:34;;;;;;;14.77;2.60;;;18.00;99.90;;;;;;4147234;28;20557;-83
2021/08/16 06:28:35;;;;;;;18.10;3.22;;;18.00;99.90;;;;;;4163778;28;20176;-85
2021/08/16 06:30:36;;;;;;;18.60;3.08;;;18.10;99.90;;;;;;4147490;28;20287;-82
2021/08/16 06:32:37;;;;;;;12.82;3.10;;;18.20;99.90;;;;;;4163880;28;20177;-90
2021/08/16 06:34:41;;;;;;;19.98;3.47;;;18.20;99.90;;;;;;4147607;28;20161;-83
2021/08/16 06:36:51;;;;;;;17.20;3.60;;;18.10;99.90;;;;;;4147494;28;20193;-82
2021/08/16 06:38:52;;;;;;;16.63;4.05;;;18.00;99.90;;;;;;4163616;28;20211;-82
2021/08/16 06:40:55;;;;;;;19.10;4.38;;;18.10;99.90;;;;;;4163553;28;20684;-82
2021/08/16 06:42:56;;;;;;;21.17;5.70;;;18.20;99.90;;;;;;4180227;28;20171;-89
2021/08/16 06:44:57;;;;;;;16.58;5.25;;;18.20;99.90;;;;;;4147592;28;20565;-88
2021/08/16 06:46:57;;;;;;;23.38;6.50;;;18.20;99.90;;;;;;4164854;28;20192;-82
2021/08/16 06:48:58;;;;;;;19.40;5.82;;;18.20;99.90;;;;;;4163671;28;20169;-82
2021/08/16 06:50:59;;;;;;;18.15;5.47;;;18.20;99.90;;;;;;4147546;28;20227;-83
2021/08/16 06:53:00;;;;;;;23.20;5.60;;;18.30;99.90;;;;;;4164945;28;20263;-82
2021/08/16 06:55:00;;;;;;;15.23;4.80;;;18.20;99.90;;;;;;4180237;28;20194;-83
2021/08/16 06:57:02;;;;;;;17.77;4.95;;;18.20;99.90;;;;;;4163518;28;20211;-84
2021/08/16 06:59:03;;;;;;;13.90;4.25;;;18.40;99.90;;;;;;4163450;28;20294;-82
2021/08/16 07:01:04;;;;;;;12.05;4.00;;;18.50;99.90;;;;;;4180245;28;20168;-83
2021/08/16 07:03:04;;;;;;;12.00;3.80;;;18.60;99.90;;;;;;4163792;28;20160;-83
2021/08/16 07:05:07;;;;;;;16.10;4.28;;;18.80;99.90;;;;;;4163743;28;20173;-83
2021/08/16 07:07:07;;;;;;;13.60;3.60;;;18.90;99.90;;;;;;4147317;28;20200;-83
2021/08/16 07:09:08;;;;;;;19.98;4.28;;;19.00;99.90;;;;;;4163479;28;20227;-83
2021/08/16 07:11:09;;;;;;;17.50;4.00;;;19.20;99.90;;;;;;4163800;28;20703;-91
2021/08/16 07:13:10;;;;;;;11.50;3.28;;;19.20;99.90;;;;;;4163651;28;20238;-83
2021/08/16 07:15:11;;;;;;;14.43;3.45;;;19.20;99.90;;;;;;4147325;28;20393;-83
2021/08/16 07:17:12;;;;;;;15.10;3.50;;;19.20;99.90;;;;;;4166248;28;20183;-83
2021/08/16 07:19:12;;;;;;;13.15;3.65;;;19.40;99.90;;;;;;4166667;28;20266;-91
2021/08/16 07:21:13;;;;;;;18.65;3.53;;;19.70;99.90;;;;;;4168021;28;20237;-83
2021/08/16 07:23:14;;;;;;;12.57;3.63;;;19.80;99.90;;;;;;4182894;28;20261;-83
2021/08/16 07:25:14;;;;;;;15.85;3.75;;;20.00;99.90;;;;;;4166595;28;20247;-83
2021/08/16 07:27:15;;;;;;;12.60;3.00;;;19.80;99.90;;;;;;4183013;28;20195;-83
2021/08/16 07:29:16;;;;;;;12.75;3.60;;;19.60;99.90;;;;;;4150001;28;20219;-83
2021/08/16 07:31:16;;;;;;;14.75;3.50;;;19.50;99.90;;;;;;4166299;28;20637;-84
2021/08/16 07:33:17;;;;;;;11.70;3.33;;;19.70;99.90;;;;;;4182690;28;20677;-83
2021/08/16 07:35:17;;;;;;;10.75;2.78;;;19.70;99.90;;;;;;4166378;28;20179;-83
2021/08/16 07:37:18;;;;;;;9.45;3.08;;;19.60;99.90;;;;;;4149864;28;20173;-83
2021/08/16 07:39:19;;;;;;;13.07;3.10;;;19.60;99.90;;;;;;4165879;28;20215;-82
2021/08/16 07:41:20;;;;;;;14.27;3.25;;;19.80;99.90;;;;;;4166109;28;20261;-83
2021/08/16 07:43:21;;;;;;;13.90;3.13;;;19.80;99.90;;;;;;4166010;28;20172;-83
2021/08/16 07:45:21;;;;;;;14.25;3.40;;;19.40;99.90;;;;;;4149687;28;20169;-83
2021/08/16 07:47:22;;;;;;;15.15;3.20;;;19.30;99.90;;;;;;4165838;28;20171;-82
2021/08/16 07:49:23;;;;;;;11.25;3.20;;;19.50;99.90;;;;;;4166279;28;20184;-83
2021/08/16 07:51:23;;;;;;;14.38;3.90;;;19.50;99.90;;;;;;4165763;28;20203;-83
2021/08/16 07:53:24;;;;;;;10.88;3.13;;;19.40;99.90;;;;;;4182588;28;20651;-82
2021/08/16 07:55:25;;;;;;;13.63;3.65;;;19.30;99.90;;;;;;4165845;28;20651;-85
2021/08/16 07:57:26;;;;;;;9.25;2.97;;;19.20;99.90;;;;;;4149439;28;20644;-82
2021/08/16 07:59:27;;;;;;;16.00;3.70;;;19.30;99.90;;;;;;4165770;28;20184;-82
2021/08/16 08:01:28;;;;;;;11.30;3.45;;;19.30;99.90;;;;;;4165918;28;20568;-82
2021/08/16 08:03:30;;;;;;;9.75;2.70;;;19.10;99.90;;;;;;4166088;28;20247;-89
2021/08/16 08:05:30;;;;;;;8.27;3.20;;;19.10;99.90;;;;;;4182181;28;20215;-82
2021/08/16 08:07:31;;;;;;;14.23;3.50;;;19.00;99.90;;;;;;4165815;28;20177;-82
2021/08/16 08:09:32;;;;;;;13.65;3.75;;;19.10;99.90;;;;;;4182370;28;20167;-82
2021/08/16 08:11:32;;;;;;;11.85;3.17;;;18.90;99.90;;;;;;4165562;28;20175;-82
2021/08/16 08:13:33;;;;;;;9.40;3.00;;;18.90;99.90;;;;;;4165665;28;20655;-87
2021/08/16 08:15:34;;;;;;;7.75;2.70;;;18.80;99.90;;;;;;4149145;28;20212;-82
2021/08/16 08:17:34;;;;;;;10.77;2.95;;;18.40;99.90;;;;;;4165760;28;20169;-86
2021/08/16 08:19:35;;;;;;;14.52;3.38;;;17.80;99.90;;;;;;4149417;28;20283;-81
2021/08/16 08:21:35;;;;;;;13.30;3.25;;;17.60;99.90;;;;;;4166784;28;20164;-81
2021/08/16 08:23:36;;;;;;;12.98;3.53;;;17.50;99.90;;;;;;4148877;28;20263;-82
2021/08/16 08:25:39;;;;;;;11.38;3.70;;;17.40;99.90;;;;;;4165363;28;20195;-82
2021/08/16 08:27:40;;;;;;;10.40;3.78;;;17.60;99.90;;;;;;4148116;28;20180;-88
2021/08/16 08:29:41;;;;;;;13.18;3.85;;;17.80;99.90;;;;;;4165510;28;20275;-87
2021/08/16 08:31:42;;;;;;;15.13;3.58;;;17.80;99.90;;;;;;4165437;28;20266;-82
2021/08/16 08:33:42;;;;;;;11.75;3.22;;;17.90;99.90;;;;;;4181811;28;20187;-87
2021/08/16 08:35:47;;;;;;;14.02;3.40;;;17.80;99.90;;;;;;4148959;28;20282;-81
2021/08/16 08:37:49;;;;;;;13.07;3.00;;;17.80;99.90;;;;;;4165265;28;20265;-82
2021/08/16 08:39:49;;;;;;;9.85;2.75;;;17.70;99.90;;;;;;4165520;28;20273;-82
2021/08/16 08:41:56;;;;;;;15.52;3.40;;;17.60;99.90;;;;;;4165548;28;20172;-82
2021/08/16 08:43:58;;;;;;;17.13;3.00;;;17.60;99.90;;;;;;4148861;28;20172;-83
2021/08/16 08:46:01;;;;;;;10.85;3.08;;;17.70;99.90;;;;;;4181567;28;20196;-82
2021/08/16 08:48:01;;;;;;;12.35;2.58;;;17.90;99.90;;;;;;4166430;28;20277;-82
2021/08/16 08:50:03;;;;;;;8.43;2.85;;;17.70;99.90;;;;;;4165353;28;20236;-82
2021/08/16 08:52:04;;;;;;;12.82;3.00;;;17.70;99.90;;;;;;4181674;28;20835;-88
2021/08/16 08:54:05;;;;;;;10.35;2.90;;;17.90;99.90;;;;;;4181677;28;20171;-82
2021/08/16 08:56:06;;;;;;;14.68;3.03;;;18.10;99.90;;;;;;4164757;28;20224;-82
2021/08/16 08:58:07;;;;;;;10.98;3.05;;;18.00;99.90;;;;;;4165221;28;20211;-82
2021/08/16 09:00:15;;;;;;;11.63;3.05;;;18.00;99.90;;;;;;4181416;28;20164;-82
2021/08/16 09:02:17;;;;;;;14.48;3.30;;;18.10;99.90;;;;;;4181230;28;20211;-82
2021/08/16 09:04:18;;;;;;;9.98;2.75;;;18.20;99.90;;;;;;4181038;28;20172;-90
2021/08/16 09:06:33;;;;;;;10.70;2.58;;;18.40;99.90;;;;;;4164814;28;20258;-82
2021/08/16 09:08:37;;;;;;;9.43;2.92;;;18.70;99.90;;;;;;4164720;28;20164;-86
2021/08/16 09:10:38;;;;;;;14.75;2.90;;;18.70;99.90;;;;;;4165134;28;20543;-82
2021/08/16 09:12:39;;;;;;;9.85;2.90;;;18.80;99.90;;;;;;4164669;28;20180;-82
2021/08/16 09:14:46;;;;;;;12.93;2.90;;;19.10;99.90;;;;;;4181508;28;20517;-88
2021/08/16 09:16:48;;;;;;;13.43;3.03;;;19.20;99.90;;;;;;4148250;28;20185;-82
2021/08/16 09:18:49;;;;;;;10.45;3.15;;;19.40;99.90;;;;;;4148209;28;20220;-82
2021/08/16 09:20:53;;;;;;;14.80;3.22;;;19.40;99.90;;;;;;4165635;28;20612;-82
2021/08/16 09:23:05;;;;;;;12.55;3.15;;;19.50;99.90;;;;;;4148235;28;20629;-87
2021/08/16 09:25:10;;;;;;;11.18;3.45;;;19.80;99.90;;;;;;4181253;28;20164;-82
2021/08/16 09:27:11;;;;;;;8.85;3.50;;;19.70;99.90;;;;;;4181089;28;20218;-82
2021/08/16 09:29:15;;;;;;;14.02;3.63;;;20.20;99.90;;;;;;4180947;28;20238;-82
2021/08/16 09:31:18;;;;;;;8.77;3.60;;;20.50;99.90;;;;;;4180765;28;20238;-82
2021/08/16 09:33:21;;;;;;;15.65;3.97;;;20.70;99.90;;;;;;4180943;28;20160;-82
2021/08/16 09:35:22;;;;;;;14.70;5.25;;;20.70;99.90;;;;;;4164237;28;20200;-82
2021/08/16 09:37:25;;;;;;;12.18;5.10;;;20.90;99.90;;;;;;4165522;28;20165;-82
2021/08/16 09:39:26;;;;;;;12.32;5.20;;;21.00;99.90;;;;;;4180460;28;20219;-82
2021/08/16 09:41:28;;;;;;;12.57;5.32;;;20.50;99.90;;;;;;4165596;28;20188;-81
2021/08/16 09:43:29;;;;;;;13.30;5.55;;;20.70;99.90;;;;;;4165779;28;20163;-82
2021/08/16 09:45:29;;;;;;;16.48;6.25;;;20.80;99.90;;;;;;4164174;28;20679;-81
2021/08/16 09:47:39;;;;;;;14.05;5.93;;;20.60;99.90;;;;;;4180969;28;20180;-82
2021/08/16 09:49:39;;;;;;;19.45;6.07;;;21.10;99.90;;;;;;4180970;28;20262;-82
2021/08/16 09:51:40;;;;;;;11.73;7.03;;;21.40;99.90;;;;;;4180700;28;20179;-82
2021/08/16 09:53:41;;;;;;;16.88;7.05;;;21.90;99.90;;;;;;4164176;28;20161;-82
2021/08/16 09:55:44;;;;;;;13.35;7.32;;;22.20;99.90;;;;;;4164672;28;20208;-82
2021/08/16 09:57:44;;;;;;;19.75;8.30;;;22.10;99.90;;;;;;4164210;28;20697;-81
2021/08/16 09:59:47;;;;;;;15.15;8.48;;;21.60;99.90;;;;;;4147714;28;20189;-82
2021/08/16 10:01:48;;;;;;;15.63;8.60;;;21.60;99.90;;;;;;4180822;28;20190;-82
2021/08/16 10:03:48;;;;;;;18.33;9.50;;;21.90;99.90;;;;;;4163978;28;20183;-82
2021/08/16 10:05:51;;;;;;;20.25;10.23;;;21.90;99.90;;;;;;4163852;28;20188;-81
2021/08/16 10:07:52;;;;;;;19.33;11.02;;;22.10;99.90;;;;;;4180140;28;20537;-83
2021/08/16 10:09:55;;;;;;;20.13;11.75;;;21.80;99.90;;;;;;4147598;28;20171;-82
2021/08/16 10:11:56;;;;;;;15.73;10.80;;;21.50;99.90;;;;;;4180521;28;20202;-82
2021/08/16 10:13:57;;;;;;;15.70;11.20;;;21.40;99.90;;;;;;4147701;28;20176;-82
2021/08/16 10:16:01;;;;;;;24.10;12.27;;;21.10;99.90;;;;;;4163693;28;20192;-81
2021/08/16 10:18:02;;;;;;;22.30;11.77;;;20.90;99.90;;;;;;4163173;28;20204;-81
2021/08/16 10:20:06;;;;;;;20.25;12.65;;;20.90;99.90;;;;;;4147278;28;20197;-82
2021/08/16 10:22:07;;;;;;;21.08;12.15;;;20.90;99.90;;;;;;4147612;28;20207;-82
2021/08/16 10:24:34;;;;;;;17.73;12.02;;;21.20;99.90;;;;;;4180397;28;20179;-82